createdAt,value
2016-10-24T00:00:47.341Z,5.23
2016-10-24T00:01:56.073Z,5.29
2016-10-24T00:03:04.770Z,5.2
2016-10-24T00:04:13.481Z,5.2
2016-10-24T00:05:22.216Z,5.23
2016-10-24T00:06:30.916Z,5.26
2016-10-24T00:07:39.613Z,5.26
2016-10-24T00:08:48.318Z,5.23
2016-10-24T00:09:57.028Z,5.19
2016-10-24T00:11:05.729Z,5.19
2016-10-24T00:12:14.435Z,5.22
2016-10-24T00:13:23.191Z,5.18
2016-10-24T00:14:31.888Z,5.22
2016-10-24T00:15:40.618Z,5.16
2016-10-24T00:16:49.351Z,5.16
2016-10-24T00:17:58.052Z,5.1
2016-10-24T00:19:06.751Z,5.1
2016-10-24T00:20:15.492Z,5.12
2016-10-24T00:21:24.190Z,5.12
2016-10-24T00:22:32.887Z,5.12
2016-10-24T00:23:41.628Z,5.18
2016-10-24T00:24:50.327Z,5.19
2016-10-24T00:25:59.025Z,5.22
2016-10-24T00:27:07.726Z,5.28
2016-10-24T00:28:16.419Z,5.26
2016-10-24T00:29:25.118Z,5.19
2016-10-24T00:30:33.808Z,5.13
2016-10-24T00:31:42.503Z,5.07
2016-10-24T00:32:51.198Z,5.15
2016-10-24T00:33:59.892Z,5.2
2016-10-24T00:35:08.589Z,5.23
2016-10-24T00:36:17.288Z,5.18
2016-10-24T00:37:25.988Z,5.08
2016-10-24T00:38:34.687Z,5.13
2016-10-24T00:39:43.399Z,5.16
2016-10-24T00:40:52.108Z,5.13
2016-10-24T00:42:00.804Z,5.23
2016-10-24T00:43:09.509Z,5.28
2016-10-24T00:44:18.210Z,5.22
2016-10-24T00:45:26.911Z,5.2
2016-10-24T00:46:35.609Z,5.19
2016-10-24T00:47:44.309Z,5.19
2016-10-24T00:48:53.011Z,5.1
2016-10-24T00:50:01.709Z,5.13
2016-10-24T00:51:10.408Z,5
2016-10-24T00:52:19.110Z,5.12
2016-10-24T00:53:27.809Z,5.15
2016-10-24T00:54:36.545Z,5.07
2016-10-24T00:55:45.242Z,5.13
2016-10-24T00:56:53.936Z,5.22
2016-10-24T00:58:02.634Z,5.18
2016-10-24T00:59:11.336Z,5.26
2016-10-24T01:00:20.028Z,5.25
2016-10-24T01:01:28.724Z,5.22
2016-10-24T01:02:37.436Z,5.25
2016-10-24T01:03:46.137Z,5.33
2016-10-24T01:04:54.840Z,5.28
2016-10-24T01:06:03.572Z,5.26
2016-10-24T01:07:12.271Z,5.26
2016-10-24T01:08:20.967Z,5.29
2016-10-24T01:09:29.664Z,5.26
2016-10-24T01:10:38.360Z,5.28
2016-10-24T01:11:47.130Z,5.34
2016-10-24T01:12:55.842Z,5.4
2016-10-24T01:14:04.539Z,5.37
2016-10-24T01:15:13.240Z,5.37
2016-10-24T01:16:21.938Z,5.43
2016-10-24T01:17:30.668Z,5.37
2016-10-24T01:18:39.366Z,5.4
2016-10-24T01:19:48.063Z,5.47
2016-10-24T01:20:56.762Z,5.38
2016-10-24T01:22:05.461Z,5.36
2016-10-24T01:23:14.152Z,5.43
2016-10-24T01:24:22.848Z,5.46
2016-10-24T01:25:31.552Z,5.38
2016-10-24T01:26:40.251Z,5.28
2016-10-24T01:27:48.949Z,5.29
2016-10-24T01:28:57.652Z,5.46
2016-10-24T01:30:06.355Z,5.46
2016-10-24T01:31:15.062Z,5.47
2016-10-24T01:32:23.761Z,5.43
2016-10-24T01:33:32.469Z,5.41
2016-10-24T01:34:41.166Z,5.4
2016-10-24T01:35:49.899Z,5.43
2016-10-24T01:36:58.600Z,5.49
2016-10-24T01:38:07.337Z,5.55
2016-10-24T01:39:16.040Z,5.52
2016-10-24T01:40:24.746Z,5.56
2016-10-24T01:41:33.445Z,5.56
2016-10-24T01:42:42.138Z,5.56
2016-10-24T01:43:50.830Z,5.61
2016-10-24T01:44:59.527Z,5.58
2016-10-24T01:46:08.226Z,5.51
2016-10-24T01:47:16.924Z,5.54
2016-10-24T01:48:25.671Z,5.49
2016-10-24T01:49:34.374Z,5.49
2016-10-24T01:50:43.069Z,5.46
2016-10-24T01:51:51.774Z,5.47
2016-10-24T01:53:00.468Z,5.49
2016-10-24T01:54:09.166Z,5.49
2016-10-24T01:55:17.862Z,5.46
2016-10-24T01:56:26.875Z,5.56
2016-10-24T01:57:35.578Z,5.58
2016-10-24T01:58:44.274Z,5.51
2016-10-24T01:59:52.995Z,5.44
2016-10-24T02:01:01.692Z,5.43
2016-10-24T02:02:10.391Z,5.49
2016-10-24T02:03:19.092Z,5.51
2016-10-24T02:04:27.791Z,5.59
2016-10-24T02:05:36.487Z,5.55
2016-10-24T02:06:45.193Z,5.49
2016-10-24T02:07:53.938Z,5.37
2016-10-24T02:09:02.633Z,5.37
2016-10-24T02:10:11.362Z,5.34
2016-10-24T02:11:20.065Z,5.31
2016-10-24T02:12:28.769Z,5.31
2016-10-24T02:13:37.471Z,5.29
2016-10-24T02:14:46.167Z,5.37
2016-10-24T02:15:54.866Z,5.47
2016-10-24T02:17:03.574Z,5.55
2016-10-24T02:18:12.331Z,5.61
2016-10-24T02:19:21.033Z,5.54
2016-10-24T02:20:29.733Z,5.49
2016-10-24T02:21:38.430Z,5.47
2016-10-24T02:22:47.127Z,5.51
2016-10-24T02:23:55.821Z,5.46
2016-10-24T02:25:04.513Z,5.46
2016-10-24T02:26:13.221Z,5.46
2016-10-24T02:27:21.917Z,5.33
2016-10-24T02:28:30.655Z,5.36
2016-10-24T02:29:39.362Z,5.33
2016-10-24T02:30:48.065Z,5.46
2016-10-24T02:31:56.760Z,5.38
2016-10-24T02:33:05.463Z,5.4
2016-10-24T02:34:14.164Z,5.43
2016-10-24T02:35:22.860Z,5.47
2016-10-24T02:36:31.556Z,5.51
2016-10-24T02:37:40.256Z,5.46
2016-10-24T02:38:48.951Z,5.46
2016-10-24T02:39:57.650Z,5.44
2016-10-24T02:41:06.364Z,5.46
2016-10-24T02:42:15.064Z,5.28
2016-10-24T02:43:23.761Z,5.29
2016-10-24T02:44:32.466Z,5.34
2016-10-24T02:45:41.165Z,5.18
2016-10-24T02:46:49.859Z,5.23
2016-10-24T02:47:58.558Z,5.34
2016-10-24T02:49:07.253Z,5.29
2016-10-24T02:50:15.952Z,5.43
2016-10-24T02:51:24.684Z,5.4
2016-10-24T02:52:33.399Z,5.41
2016-10-24T02:53:42.105Z,5.37
2016-10-24T02:54:50.802Z,5.37
2016-10-24T02:55:59.505Z,5.34
2016-10-24T02:57:08.205Z,5.46
2016-10-24T02:58:16.902Z,5.37
2016-10-24T02:59:25.604Z,5.36
2016-10-24T03:00:34.300Z,5.34
2016-10-24T03:01:43.002Z,5.37
2016-10-24T03:02:51.700Z,5.37
2016-10-24T03:04:00.393Z,5.49
2016-10-24T03:05:09.087Z,5.4
2016-10-24T03:06:17.788Z,5.4
2016-10-24T03:07:26.485Z,5.33
2016-10-24T03:08:35.184Z,5.34
2016-10-24T03:09:43.878Z,5.37
2016-10-24T03:10:52.580Z,5.46
2016-10-24T03:12:01.277Z,5.29
2016-10-24T03:13:09.981Z,5.43
2016-10-24T03:14:18.677Z,5.4
2016-10-24T03:15:27.413Z,5.43
2016-10-24T03:16:36.120Z,5.43
2016-10-24T03:17:44.822Z,5.4
2016-10-24T03:18:53.524Z,5.4
2016-10-24T03:20:02.227Z,5.38
2016-10-24T03:21:10.936Z,5.34
2016-10-24T03:22:19.639Z,5.28
2016-10-24T03:23:28.339Z,5.26
2016-10-24T03:24:37.037Z,5.31
2016-10-24T03:25:45.738Z,5.2
2016-10-24T03:26:54.446Z,5.25
2016-10-24T03:28:03.141Z,5.29
2016-10-24T03:29:11.847Z,5.29
2016-10-24T03:30:20.542Z,5.33
2016-10-24T03:31:29.247Z,5.37
2016-10-24T03:32:37.957Z,5.29
2016-10-24T03:33:46.654Z,5.28
2016-10-24T03:34:55.354Z,5.29
2016-10-24T03:36:04.053Z,5.26
2016-10-24T03:37:12.787Z,5.2
2016-10-24T03:38:21.486Z,5.26
2016-10-24T03:39:30.183Z,5.19
2016-10-24T03:40:38.880Z,5.19
2016-10-24T03:41:47.900Z,5.2
2016-10-24T03:42:56.599Z,5.25
2016-10-24T03:44:05.333Z,5.2
2016-10-24T03:45:14.031Z,5.08
2016-10-24T03:46:22.731Z,5.16
2016-10-24T03:47:31.429Z,5.13
2016-10-24T03:48:40.131Z,5.26
2016-10-24T03:49:48.838Z,5.23
2016-10-24T03:50:57.581Z,5.26
2016-10-24T03:52:06.280Z,5.2
2016-10-24T03:53:15.293Z,5.1
2016-10-24T03:54:23.988Z,5.08
2016-10-24T03:55:32.684Z,5.16
2016-10-24T03:56:41.382Z,5.13
2016-10-24T03:57:50.078Z,5.08
2016-10-24T03:58:58.773Z,5.12
2016-10-24T04:00:07.790Z,5.13
2016-10-24T04:01:16.493Z,5.16
2016-10-24T04:02:25.195Z,5.15
2016-10-24T04:03:33.896Z,5.16
2016-10-24T04:04:42.630Z,5.16
2016-10-24T04:05:51.336Z,5.13
2016-10-24T04:07:00.038Z,5.16
2016-10-24T04:08:08.735Z,5.16
2016-10-24T04:09:17.433Z,5.19
2016-10-24T04:10:26.131Z,5.19
2016-10-24T04:11:34.828Z,5.15
2016-10-24T04:12:43.526Z,5.23
2016-10-24T04:13:52.230Z,5.12
2016-10-24T04:15:00.927Z,5.2
2016-10-24T04:16:09.627Z,5.13
2016-10-24T04:17:18.328Z,5.15
2016-10-24T04:18:27.028Z,5.08
2016-10-24T04:19:35.730Z,5
2016-10-24T04:20:44.427Z,5.02
2016-10-24T04:21:53.121Z,5.04
2016-10-24T04:23:01.821Z,5.01
2016-10-24T04:24:10.535Z,5.18
2016-10-24T04:25:19.231Z,5.13
2016-10-24T04:26:27.929Z,5.18
2016-10-24T04:27:36.624Z,5.05
2016-10-24T04:28:45.328Z,5
2016-10-24T04:29:54.022Z,5.05
2016-10-24T04:31:02.935Z,5.01
2016-10-24T04:32:11.628Z,4.98
2016-10-24T04:33:20.327Z,5.05
2016-10-24T04:34:29.023Z,5.01
2016-10-24T04:35:37.763Z,4.98
2016-10-24T04:36:46.460Z,5
2016-10-24T04:37:55.151Z,5.02
2016-10-24T04:39:03.847Z,5.04
2016-10-24T04:40:12.544Z,5.07
2016-10-24T04:41:21.242Z,5.02
2016-10-24T04:42:29.935Z,5
2016-10-24T04:43:38.632Z,5.1
2016-10-24T04:44:47.373Z,5.18
2016-10-24T04:45:56.066Z,5.1
2016-10-24T04:47:04.766Z,5.05
2016-10-24T04:48:13.506Z,5
2016-10-24T04:49:22.204Z,4.92
2016-10-24T04:50:30.901Z,4.9
2016-10-24T04:51:39.606Z,4.92
2016-10-24T04:52:48.305Z,5.02
2016-10-24T04:53:57.289Z,5.02
2016-10-24T04:55:05.989Z,5.02
2016-10-24T04:56:14.725Z,5.01
2016-10-24T04:57:23.434Z,4.97
2016-10-24T04:58:32.131Z,4.94
2016-10-24T04:59:40.867Z,4.83
2016-10-24T05:00:49.569Z,4.83
2016-10-24T05:01:58.264Z,4.95
2016-10-24T05:03:07.295Z,5.01
2016-10-24T05:04:15.992Z,5.07
2016-10-24T05:05:24.694Z,4.98
2016-10-24T05:06:33.394Z,5.02
2016-10-24T05:07:42.092Z,5.05
2016-10-24T05:08:50.789Z,4.94
2016-10-24T05:09:59.502Z,4.94
2016-10-24T05:11:08.199Z,4.97
2016-10-24T05:12:16.896Z,5.01
2016-10-24T05:13:25.593Z,4.97
2016-10-24T05:14:34.285Z,5.01
2016-10-24T05:15:42.985Z,4.98
2016-10-24T05:16:51.679Z,5.05
2016-10-24T05:18:00.377Z,4.97
2016-10-24T05:19:09.073Z,5.04
2016-10-24T05:20:17.771Z,5.04
2016-10-24T05:21:26.471Z,5.07
2016-10-24T05:22:35.169Z,5.02
2016-10-24T05:23:43.871Z,5.01
2016-10-24T05:24:52.570Z,5.02
2016-10-24T05:26:01.270Z,5.05
2016-10-24T05:27:09.970Z,5.12
2016-10-24T05:28:18.671Z,5.04
2016-10-24T05:29:27.373Z,5.01
2016-10-24T05:30:36.072Z,5
2016-10-24T05:31:44.767Z,5.05
2016-10-24T05:32:53.470Z,5.07
2016-10-24T05:34:02.208Z,5.04
2016-10-24T05:35:10.915Z,5.04
2016-10-24T05:36:19.609Z,5.01
2016-10-24T05:37:28.306Z,5.05
2016-10-24T05:38:37.043Z,5.16
2016-10-24T05:39:45.782Z,5.16
2016-10-24T05:40:54.472Z,5.15
2016-10-24T05:42:03.171Z,5.1
2016-10-24T05:43:11.868Z,5.19
2016-10-24T05:44:20.564Z,5.16
2016-10-24T05:45:29.261Z,5.12
2016-10-24T05:46:37.958Z,5.02
2016-10-24T05:47:46.657Z,5.01
2016-10-24T05:48:55.361Z,5.01
2016-10-24T05:50:04.061Z,4.95
2016-10-24T05:51:12.752Z,4.9
2016-10-24T05:52:21.484Z,4.95
2016-10-24T05:53:30.183Z,4.94
2016-10-24T05:54:38.959Z,5.02
2016-10-24T05:55:47.658Z,5.01
2016-10-24T05:56:56.364Z,5.05
2016-10-24T05:58:05.064Z,5.02
2016-10-24T05:59:13.771Z,4.9
2016-10-24T06:00:22.468Z,4.97
2016-10-24T06:01:31.176Z,5.02
2016-10-24T06:02:39.877Z,5.08
2016-10-24T06:03:48.571Z,5.02
2016-10-24T06:04:57.269Z,5.08
2016-10-24T06:06:05.969Z,5.02
2016-10-24T06:07:14.680Z,5.02
2016-10-24T06:08:23.456Z,5.01
2016-10-24T06:09:32.168Z,5.04
2016-10-24T06:10:40.895Z,4.97
2016-10-24T06:11:49.588Z,5.05
2016-10-24T06:12:58.283Z,5.01
2016-10-24T06:14:06.988Z,5.05
2016-10-24T06:15:15.682Z,5.04
2016-10-24T06:16:24.393Z,5.01
2016-10-24T06:17:33.444Z,5.05
2016-10-24T06:18:42.145Z,5.02
2016-10-24T06:19:50.844Z,5.02
2016-10-24T06:20:59.864Z,5
2016-10-24T06:22:08.877Z,5
2016-10-24T06:23:17.580Z,4.98
2016-10-24T06:24:26.279Z,4.95
2016-10-24T06:25:35.296Z,4.92
2016-10-24T06:26:43.993Z,4.9
2016-10-24T06:27:52.689Z,5.01
2016-10-24T06:29:01.395Z,5
2016-10-24T06:30:10.090Z,5.01
2016-10-24T06:31:18.792Z,5
2016-10-24T06:32:27.487Z,5.01
2016-10-24T06:33:36.196Z,5
2016-10-24T06:34:44.894Z,5.02
2016-10-24T06:35:53.968Z,5.01
2016-10-24T06:37:02.977Z,5.04
2016-10-24T06:38:11.684Z,5.16
2016-10-24T06:39:20.383Z,5.2
2016-10-24T06:40:29.082Z,5.02
2016-10-24T06:41:37.782Z,5
2016-10-24T06:42:46.531Z,4.97
2016-10-24T06:43:55.371Z,4.94
2016-10-24T06:45:04.065Z,4.92
2016-10-24T06:46:14.146Z,4.86
2016-10-24T06:47:22.880Z,4.82
2016-10-24T06:48:31.923Z,4.86
2016-10-24T06:49:40.650Z,4.83
2016-10-24T06:50:49.352Z,4.86
2016-10-24T06:51:58.104Z,4.94
2016-10-24T06:53:06.807Z,4.98
2016-10-24T06:54:15.506Z,5
2016-10-24T06:55:24.202Z,5
2016-10-24T06:56:32.906Z,5.02
2016-10-24T06:57:41.612Z,5.04
2016-10-24T06:58:50.619Z,5.12
2016-10-24T06:59:59.322Z,5.02
2016-10-24T07:01:08.025Z,5.07
2016-10-24T07:02:16.725Z,5
2016-10-24T07:03:25.427Z,4.82
2016-10-24T07:04:34.147Z,4.86
2016-10-24T07:05:43.193Z,4.75
2016-10-24T07:06:51.888Z,4.68
2016-10-24T07:08:00.585Z,4.64
2016-10-24T07:09:09.280Z,4.71
2016-10-24T07:10:17.975Z,4.71
2016-10-24T07:11:26.673Z,4.63
2016-10-24T07:12:35.377Z,4.63
2016-10-24T07:13:44.394Z,4.71
2016-10-24T07:14:53.094Z,4.78
2016-10-24T07:16:01.788Z,4.68
2016-10-24T07:17:10.523Z,4.83
2016-10-24T07:18:19.221Z,4.82
2016-10-24T07:19:27.927Z,4.84
2016-10-24T07:20:36.629Z,4.94
2016-10-24T07:21:45.337Z,4.83
2016-10-24T07:22:54.032Z,4.76
2016-10-24T07:24:02.726Z,4.78
2016-10-24T07:25:11.435Z,4.76
2016-10-24T07:26:20.135Z,4.76
2016-10-24T07:27:28.842Z,4.76
2016-10-24T07:28:37.542Z,4.64
2016-10-24T07:29:46.249Z,4.68
2016-10-24T07:30:54.945Z,4.66
2016-10-24T07:32:03.642Z,4.63
2016-10-24T07:33:12.351Z,4.68
2016-10-24T07:34:21.039Z,4.64
2016-10-24T07:35:29.741Z,4.71
2016-10-24T07:36:38.441Z,4.76
2016-10-24T07:37:47.138Z,4.78
2016-10-24T07:38:55.835Z,4.79
2016-10-24T07:40:04.532Z,4.78
2016-10-24T07:41:13.235Z,4.75
2016-10-24T07:42:21.931Z,4.71
2016-10-24T07:43:30.640Z,4.84
2016-10-24T07:44:39.338Z,4.78
2016-10-24T07:45:48.031Z,4.84
2016-10-24T07:46:56.733Z,4.92
2016-10-24T07:48:05.430Z,4.92
2016-10-24T07:49:14.133Z,5.02
2016-10-24T07:50:22.875Z,5.02
2016-10-24T07:51:31.601Z,5.01
2016-10-24T07:52:40.301Z,5
2016-10-24T07:53:48.997Z,5
2016-10-24T07:54:57.703Z,5.02
2016-10-24T07:56:06.398Z,5.02
2016-10-24T07:57:15.092Z,5.1
2016-10-24T07:58:24.117Z,5.18
2016-10-24T07:59:32.812Z,5.2
2016-10-24T08:00:41.511Z,5.19
2016-10-24T08:01:50.210Z,5.19
2016-10-24T08:02:58.907Z,5.13
2016-10-24T08:04:07.631Z,5.2
2016-10-24T08:05:16.654Z,5.25
2016-10-24T08:06:25.479Z,5.2
2016-10-24T08:07:34.177Z,5.16
2016-10-24T08:08:42.874Z,5.19
2016-10-24T08:09:51.576Z,5.23
2016-10-24T08:11:00.275Z,5.23
2016-10-24T08:12:08.987Z,5.13
2016-10-24T08:13:17.996Z,5.16
2016-10-24T08:14:26.697Z,5.13
2016-10-24T08:15:35.400Z,5.2
2016-10-24T08:16:44.101Z,5.26
2016-10-24T08:17:52.796Z,5.33
2016-10-24T08:19:01.496Z,5.22
2016-10-24T08:20:10.203Z,5.25
2016-10-24T08:21:18.903Z,5.23
2016-10-24T08:22:27.600Z,5.2
2016-10-24T08:23:36.294Z,5.31
2016-10-24T08:24:45.023Z,5.29
2016-10-24T08:25:53.720Z,5.38
2016-10-24T08:27:02.417Z,5.29
2016-10-24T08:28:11.113Z,5.33
2016-10-24T08:29:19.815Z,5.26
2016-10-24T08:30:28.828Z,5.25
2016-10-24T08:31:37.528Z,5.29
2016-10-24T08:32:46.225Z,5.29
2016-10-24T08:33:54.923Z,5.2
2016-10-24T08:35:03.649Z,5.29
2016-10-24T08:36:12.663Z,5.23
2016-10-24T08:37:21.360Z,5.25
2016-10-24T08:38:30.055Z,5.22
2016-10-24T08:39:38.760Z,5.25
2016-10-24T08:40:47.465Z,5.22
2016-10-24T08:41:56.170Z,5.16
2016-10-24T08:43:04.864Z,5.26
2016-10-24T08:44:13.560Z,5.29
2016-10-24T08:45:22.258Z,5.23
2016-10-24T08:46:30.955Z,5.29
2016-10-24T08:47:39.662Z,5.44
2016-10-24T08:48:48.362Z,5.46
2016-10-24T08:49:57.063Z,5.44
2016-10-24T08:51:05.762Z,5.49
2016-10-24T08:52:14.782Z,5.55
2016-10-24T08:53:23.479Z,5.61
2016-10-24T08:54:32.175Z,5.61
2016-10-24T08:55:40.877Z,5.56
2016-10-24T08:56:49.572Z,5.59
2016-10-24T08:57:58.308Z,5.69
2016-10-24T08:59:07.018Z,5.67
2016-10-24T09:00:15.717Z,5.73
2016-10-24T09:01:24.447Z,5.77
2016-10-24T09:02:33.146Z,5.9
2016-10-24T09:03:41.881Z,5.87
2016-10-24T09:04:50.581Z,5.9
2016-10-24T09:05:59.279Z,5.9
2016-10-24T09:07:07.979Z,5.87
2016-10-24T09:08:16.676Z,5.94
2016-10-24T09:09:25.392Z,5.81
2016-10-24T09:10:34.135Z,5.77
2016-10-24T09:11:42.830Z,5.72
2016-10-24T09:12:51.527Z,5.67
2016-10-24T09:14:00.229Z,5.77
2016-10-24T09:15:08.962Z,5.74
2016-10-24T09:16:17.663Z,5.79
2016-10-24T09:17:26.400Z,5.73
2016-10-24T09:18:35.094Z,5.72
2016-10-24T09:19:43.817Z,5.8
2016-10-24T09:20:52.514Z,5.74
2016-10-24T09:22:01.210Z,5.83
2016-10-24T09:23:10.226Z,5.91
2016-10-24T09:24:18.930Z,5.87
2016-10-24T09:25:27.628Z,5.83
2016-10-24T09:26:36.363Z,5.74
2016-10-24T09:27:45.134Z,5.79
2016-10-24T09:28:53.838Z,5.79
2016-10-24T09:30:02.543Z,5.84
2016-10-24T09:31:11.276Z,5.74
2016-10-24T09:32:19.975Z,5.77
2016-10-24T09:33:28.674Z,5.88
2016-10-24T09:34:37.377Z,5.9
2016-10-24T09:35:46.076Z,5.79
2016-10-24T09:36:54.802Z,5.9
2016-10-24T09:38:03.508Z,5.81
2016-10-24T09:39:12.210Z,5.81
2016-10-24T09:40:20.910Z,5.88
2016-10-24T09:41:29.610Z,5.8
2016-10-24T09:42:38.304Z,5.83
2016-10-24T09:43:47.003Z,5.79
2016-10-24T09:44:55.745Z,5.97
2016-10-24T09:46:04.765Z,5.92
2016-10-24T09:47:13.472Z,5.95
2016-10-24T09:48:22.211Z,5.91
2016-10-24T09:49:31.225Z,5.74
2016-10-24T09:50:39.971Z,5.81
2016-10-24T09:51:48.677Z,5.73
2016-10-24T09:52:57.373Z,5.64
2016-10-24T09:54:06.088Z,5.64
2016-10-24T09:55:14.790Z,5.55
2016-10-24T09:56:23.482Z,5.64
2016-10-24T09:57:32.182Z,5.54
2016-10-24T09:58:40.885Z,5.65
2016-10-24T09:59:49.581Z,5.79
2016-10-24T10:00:58.275Z,5.81
2016-10-24T10:02:06.982Z,5.73
2016-10-24T10:03:15.685Z,5.72
2016-10-24T10:04:24.375Z,5.72
2016-10-24T10:05:33.115Z,5.83
2016-10-24T10:06:41.812Z,5.81
2016-10-24T10:07:50.505Z,5.92
2016-10-24T10:08:59.203Z,5.91
2016-10-24T10:10:07.906Z,5.83
2016-10-24T10:11:16.607Z,5.8
2016-10-24T10:12:25.632Z,5.84
2016-10-24T10:13:34.331Z,5.94
2016-10-24T10:14:43.036Z,5.87
2016-10-24T10:15:51.737Z,5.91
2016-10-24T10:17:00.431Z,5.92
2016-10-24T10:18:09.133Z,5.97
2016-10-24T10:19:17.840Z,5.84
2016-10-24T10:20:26.866Z,5.9
2016-10-24T10:21:35.565Z,5.91
2016-10-24T10:22:44.265Z,5.81
2016-10-24T10:23:53.280Z,5.79
2016-10-24T10:25:01.985Z,5.88
2016-10-24T10:26:10.682Z,5.76
2016-10-24T10:27:19.392Z,5.91
2016-10-24T10:28:28.094Z,5.83
2016-10-24T10:29:36.790Z,5.81
2016-10-24T10:30:45.496Z,5.83
2016-10-24T10:31:54.196Z,5.84
2016-10-24T10:33:02.889Z,5.88
2016-10-24T10:34:11.591Z,5.97
2016-10-24T10:35:20.292Z,5.81
2016-10-24T10:36:28.987Z,5.84
2016-10-24T10:37:37.694Z,5.92
2016-10-24T10:38:46.396Z,5.83
2016-10-24T10:39:55.093Z,5.84
2016-10-24T10:41:03.792Z,5.84
2016-10-24T10:42:12.499Z,5.99
2016-10-24T10:43:21.202Z,6.1
2016-10-24T10:44:29.900Z,6.13
2016-10-24T10:45:38.595Z,6.12
2016-10-24T10:46:47.292Z,6.2
2016-10-24T10:47:55.993Z,6.16
2016-10-24T10:49:05.012Z,6.17
2016-10-24T10:50:13.712Z,6.25
2016-10-24T10:51:22.406Z,6.19
2016-10-24T10:52:31.110Z,6.2
2016-10-24T10:53:39.806Z,6.25
2016-10-24T10:54:48.509Z,6.17
2016-10-24T10:55:57.203Z,6.26
2016-10-24T10:57:05.906Z,6.29
2016-10-24T10:58:14.602Z,6.2
2016-10-24T10:59:23.310Z,6.19
2016-10-24T11:00:32.049Z,6.31
2016-10-24T11:01:40.761Z,6.32
2016-10-24T11:02:49.465Z,6.29
2016-10-24T11:03:58.161Z,6.26
2016-10-24T11:05:06.856Z,6.2
2016-10-24T11:06:15.601Z,6.01
2016-10-24T11:07:24.301Z,5.81
2016-10-24T11:08:33.000Z,5.69
2016-10-24T11:09:41.697Z,5.59
2016-10-24T11:10:50.397Z,5.59
2016-10-24T11:11:59.095Z,5.58
2016-10-24T11:13:07.795Z,5.64
2016-10-24T11:14:16.495Z,5.69
2016-10-24T11:15:25.192Z,5.65
2016-10-24T11:16:33.902Z,5.65
2016-10-24T11:17:42.918Z,5.69
2016-10-24T11:18:51.614Z,5.58
2016-10-24T11:20:00.306Z,5.55
2016-10-24T11:21:09.003Z,5.38
2016-10-24T11:22:17.697Z,5.29
2016-10-24T11:23:26.407Z,5.16
2016-10-24T11:24:35.110Z,5.23
2016-10-24T11:25:43.813Z,5.12
2016-10-24T11:26:52.506Z,5.04
2016-10-24T11:28:01.205Z,5.1
2016-10-24T11:29:09.909Z,5.2
2016-10-24T11:30:18.608Z,5.22
2016-10-24T11:31:27.305Z,5.38
2016-10-24T11:32:36.368Z,5.4
2016-10-24T11:33:45.068Z,5.34
2016-10-24T11:34:53.766Z,5.25
2016-10-24T11:36:02.462Z,5.29
2016-10-24T11:37:11.166Z,5.34
2016-10-24T11:38:19.871Z,5.34
2016-10-24T11:39:28.565Z,5.34
2016-10-24T11:40:37.261Z,5.46
2016-10-24T11:41:45.967Z,5.38
2016-10-24T11:42:54.661Z,5.4
2016-10-24T11:44:03.366Z,5.46
2016-10-24T11:45:12.076Z,5.47
2016-10-24T11:46:20.869Z,5.47
2016-10-24T11:47:29.561Z,5.58
2016-10-24T11:48:38.267Z,5.56
2016-10-24T11:49:46.968Z,5.61
2016-10-24T11:50:55.664Z,5.69
2016-10-24T11:52:04.359Z,5.64
2016-10-24T11:53:13.053Z,5.49
2016-10-24T11:54:21.755Z,5.46
2016-10-24T11:55:30.452Z,5.49
2016-10-24T11:56:39.145Z,5.46
2016-10-24T11:57:47.848Z,5.43
2016-10-24T11:58:56.546Z,5.26
2016-10-24T12:00:05.241Z,5.31
2016-10-24T12:01:13.948Z,5.23
2016-10-24T12:02:22.647Z,5.2
2016-10-24T12:03:31.344Z,5.2
2016-10-24T12:04:40.056Z,5.12
2016-10-24T12:05:48.755Z,5.15
2016-10-24T12:06:57.454Z,5.19
2016-10-24T12:08:06.151Z,5.13
2016-10-24T12:09:15.175Z,5.19
2016-10-24T12:10:23.868Z,5.13
2016-10-24T12:11:32.571Z,5.08
2016-10-24T12:12:41.274Z,5.12
2016-10-24T12:13:50.010Z,5.1
2016-10-24T12:14:58.708Z,5.04
2016-10-24T12:16:07.446Z,5.05
2016-10-24T12:17:16.142Z,5.15
2016-10-24T12:18:24.844Z,5
2016-10-24T12:19:33.539Z,5.01
2016-10-24T12:20:42.234Z,5.12
2016-10-24T12:21:50.928Z,5.13
2016-10-24T12:22:59.625Z,5.15
2016-10-24T12:24:08.321Z,5.12
2016-10-24T12:25:17.036Z,5.15
2016-10-24T12:26:25.739Z,5.19
2016-10-24T12:27:34.441Z,5.23
2016-10-24T12:28:43.138Z,5.46
2016-10-24T12:29:51.839Z,5.58
2016-10-24T12:31:00.539Z,5.65
2016-10-24T12:32:09.238Z,5.62
2016-10-24T12:33:17.938Z,5.72
2016-10-24T12:34:26.628Z,5.73
2016-10-24T12:35:35.328Z,5.7
2016-10-24T12:36:44.071Z,5.65
2016-10-24T12:37:52.767Z,5.46
2016-10-24T12:39:01.780Z,5.31
2016-10-24T12:40:10.478Z,5.47
2016-10-24T12:41:19.178Z,5.55
2016-10-24T12:42:27.878Z,5.56
2016-10-24T12:43:36.573Z,5.47
2016-10-24T12:44:45.320Z,5.33
2016-10-24T12:45:54.059Z,5.26
2016-10-24T12:47:02.788Z,5.22
2016-10-24T12:48:11.486Z,5.15
2016-10-24T12:49:20.184Z,5.08
2016-10-24T12:50:28.884Z,5.2
2016-10-24T12:51:37.604Z,5.15
2016-10-24T12:52:46.335Z,5.07
2016-10-24T12:53:55.027Z,5.15
2016-10-24T12:55:03.803Z,4.97
2016-10-24T12:56:12.620Z,4.98
2016-10-24T12:57:21.313Z,5.01
2016-10-24T12:58:30.014Z,5.04
2016-10-24T12:59:38.705Z,4.97
2016-10-24T13:00:47.399Z,5.04
2016-10-24T13:01:56.095Z,5.01
2016-10-24T13:03:04.819Z,5.04
2016-10-24T13:04:13.517Z,5.02
2016-10-24T13:05:22.236Z,5.02
2016-10-24T13:06:30.947Z,5.01
2016-10-24T13:07:39.647Z,5.05
2016-10-24T13:08:48.340Z,5.07
2016-10-24T13:09:57.033Z,5.05
2016-10-24T13:11:05.728Z,5.1
2016-10-24T13:12:14.423Z,5.12
2016-10-24T13:13:23.122Z,5.25
2016-10-24T13:14:31.817Z,5.26
2016-10-24T13:15:40.514Z,5.44
2016-10-24T13:16:49.217Z,5.47
2016-10-24T13:17:57.912Z,5.43
2016-10-24T13:19:06.617Z,5.37
2016-10-24T13:20:15.315Z,5.37
2016-10-24T13:21:24.012Z,5.33
2016-10-24T13:22:32.705Z,5.28
2016-10-24T13:23:41.396Z,5.36
2016-10-24T13:24:50.086Z,5.26
2016-10-24T13:25:58.785Z,5.29
2016-10-24T13:27:07.484Z,5.38
2016-10-24T13:28:16.174Z,5.4
2016-10-24T13:29:24.870Z,5.4
2016-10-24T13:30:33.606Z,5.37
2016-10-24T13:31:42.375Z,5.34
2016-10-24T13:32:51.068Z,5.33
2016-10-24T13:33:59.773Z,5.34
2016-10-24T13:35:08.469Z,5.29
2016-10-24T13:36:17.166Z,5.4
2016-10-24T13:37:25.868Z,5.46
2016-10-24T13:38:34.570Z,5.46
2016-10-24T13:39:43.266Z,5.46
2016-10-24T13:40:51.957Z,5.38
2016-10-24T13:42:00.651Z,5.28
2016-10-24T13:43:09.356Z,5.29
2016-10-24T13:44:18.051Z,5.37
2016-10-24T13:45:26.750Z,5.33
2016-10-24T13:46:35.447Z,5.31
2016-10-24T13:47:44.151Z,5.34
2016-10-24T13:48:52.854Z,5.29
2016-10-24T13:50:01.553Z,5.33
2016-10-24T13:51:10.255Z,5.29
2016-10-24T13:52:18.949Z,5.22
2016-10-24T13:53:27.642Z,5.23
2016-10-24T13:54:36.336Z,5.26
2016-10-24T13:55:45.031Z,5.29
2016-10-24T13:56:53.722Z,5.25
2016-10-24T13:58:02.420Z,5.19
2016-10-24T13:59:11.120Z,5.29
2016-10-24T14:00:19.825Z,5.25
2016-10-24T14:01:28.520Z,5.29
2016-10-24T14:02:37.361Z,5.36
2016-10-24T14:03:46.056Z,5.4
2016-10-24T14:04:54.762Z,5.4
2016-10-24T14:06:03.764Z,5.4
2016-10-24T14:07:12.472Z,5.46
2016-10-24T14:08:21.196Z,5.51
2016-10-24T14:09:29.887Z,5.52
2016-10-24T14:10:38.586Z,5.62
2016-10-24T14:11:47.333Z,5.59
2016-10-24T14:12:56.028Z,5.67
2016-10-24T14:14:04.722Z,5.62
2016-10-24T14:15:13.428Z,5.58
2016-10-24T14:16:22.122Z,5.65
2016-10-24T14:17:30.819Z,5.55
2016-10-24T14:18:39.515Z,5.46
2016-10-24T14:19:48.524Z,5.26
2016-10-24T14:20:57.215Z,5.28
2016-10-24T14:22:05.909Z,5.28
2016-10-24T14:23:14.636Z,5.23
2016-10-24T14:24:23.335Z,5.23
2016-10-24T14:25:32.033Z,5.25
2016-10-24T14:26:40.725Z,5.22
2016-10-24T14:27:49.416Z,5.1
2016-10-24T14:28:58.109Z,5.18
2016-10-24T14:30:06.817Z,5.15
2016-10-24T14:31:15.515Z,5.22
2016-10-24T14:32:24.259Z,5.15
2016-10-24T14:33:32.961Z,5.22
2016-10-24T14:34:41.694Z,5.19
2016-10-24T14:35:50.386Z,5.22
2016-10-24T14:36:59.084Z,5.13
2016-10-24T14:38:07.774Z,5.2
2016-10-24T14:39:16.468Z,5.16
2016-10-24T14:40:25.164Z,5
2016-10-24T14:41:33.863Z,5.08
2016-10-24T14:42:42.553Z,5.07
2016-10-24T14:43:51.251Z,5.01
2016-10-24T14:44:59.949Z,5.16
2016-10-24T14:46:08.649Z,5.15
2016-10-24T14:47:17.349Z,5.02
2016-10-24T14:48:26.047Z,5.02
2016-10-24T14:49:34.750Z,5.04
2016-10-24T14:50:43.756Z,5.01
2016-10-24T14:51:52.452Z,5.01
2016-10-24T14:53:01.145Z,5.01
2016-10-24T14:54:09.847Z,5
2016-10-24T14:55:18.546Z,5.04
2016-10-24T14:56:27.247Z,5.05
2016-10-24T14:57:35.963Z,5
2016-10-24T14:58:44.975Z,5.05
2016-10-24T14:59:53.701Z,5.12
2016-10-24T15:01:02.394Z,5.23
2016-10-24T15:02:11.090Z,5.34
2016-10-24T15:03:19.790Z,5.47
2016-10-24T15:04:28.489Z,5.58
2016-10-24T15:05:37.187Z,5.56
2016-10-24T15:06:45.885Z,5.34
2016-10-24T15:07:54.578Z,5.31
2016-10-24T15:09:03.272Z,5.18
2016-10-24T15:10:11.970Z,5.22
2016-10-24T15:11:20.671Z,5.13
2016-10-24T15:12:29.375Z,5.15
2016-10-24T15:13:38.067Z,5.1
2016-10-24T15:14:46.763Z,5.13
2016-10-24T15:15:55.493Z,5.12
2016-10-24T15:17:04.193Z,5.02
2016-10-24T15:18:12.884Z,5.04
2016-10-24T15:19:21.583Z,5.04
2016-10-24T15:20:30.280Z,5